Time;durP1;ratioP1;P1;durP2;ratioP2;P2;SDS_P1;SDS_P2;PMS_P1;PMS_P2;Temp;Humidity;BMP_temperature;BMP_pressure;BME280_temperature;BME280_humidity;BME280_pressure;Samples;Min_cycle;Max_cycle;Signal;HPM_P1;HPM_P2
2022/08/15 00:00:13;;;;;;;21.70;16.38;;;23.60;68.10;;;;;;5039449;28;20029;-86
2022/08/15 00:02:44;;;;;;;21.25;16.33;;;23.60;68.40;;;;;;5000739;28;20041;-86
2022/08/15 00:05:13;;;;;;;23.30;16.75;;;23.60;68.50;;;;;;5034020;28;20052;-86
2022/08/15 00:07:40;;;;;;;21.55;17.42;;;23.60;68.50;;;;;;5034431;28;20041;-86
2022/08/15 00:10:08;;;;;;;21.52;16.67;;;23.60;68.70;;;;;;5016762;28;20037;-86
2022/08/15 00:12:35;;;;;;;22.83;16.98;;;23.60;68.70;;;;;;5033899;28;20098;-86
2022/08/15 00:15:04;;;;;;;23.23;18.25;;;23.60;68.80;;;;;;5034278;28;20531;-87
2022/08/15 00:17:30;;;;;;;26.95;17.08;;;23.50;69.00;;;;;;5025406;28;20038;-88
2022/08/15 00:19:56;;;;;;;20.17;16.30;;;23.50;69.00;;;;;;5033725;28;20037;-85
2022/08/15 00:22:22;;;;;;;25.50;17.23;;;23.50;69.10;;;;;;5021200;28;20033;-87
2022/08/15 00:24:50;;;;;;;23.70;16.55;;;23.50;69.40;;;;;;5039584;28;20107;-85
2022/08/15 00:27:16;;;;;;;24.88;17.30;;;23.50;69.30;;;;;;5033137;28;20492;-86
2022/08/15 00:29:42;;;;;;;19.58;16.35;;;23.50;69.50;;;;;;5041246;28;20120;-86
2022/08/15 00:32:12;;;;;;;21.90;15.88;;;23.40;69.50;;;;;;5024648;28;20128;-85
2022/08/15 00:34:38;;;;;;;20.15;15.38;;;23.50;69.60;;;;;;5036087;28;20029;-86
2022/08/15 00:37:05;;;;;;;20.20;14.95;;;23.40;69.60;;;;;;5056915;28;20029;-86
2022/08/15 00:39:32;;;;;;;20.08;14.60;;;23.40;69.60;;;;;;5034460;28;20033;-86
2022/08/15 00:42:01;;;;;;;21.25;14.80;;;23.40;69.90;;;;;;5034046;28;20149;-87
2022/08/15 00:44:40;;;;;;;18.75;14.10;;;23.30;70.10;;;;;;5021757;28;20091;-86
2022/08/15 00:47:11;;;;;;;16.77;13.45;;;23.30;70.20;;;;;;5035562;28;20033;-87
2022/08/15 00:49:38;;;;;;;18.88;14.10;;;23.30;70.30;;;;;;5009610;28;20042;-86
2022/08/15 00:52:20;;;;;;;19.52;13.98;;;23.30;70.20;;;;;;5039863;28;20037;-84
2022/08/15 00:54:50;;;;;;;20.25;14.20;;;23.30;70.40;;;;;;5021857;28;20065;-85
2022/08/15 00:57:33;;;;;;;17.80;14.13;;;23.30;70.60;;;;;;5038046;28;20507;-85
2022/08/15 01:00:06;;;;;;;18.90;12.75;;;23.30;70.90;;;;;;5038234;28;20118;-87
2022/08/15 01:02:34;;;;;;;17.83;13.52;;;23.20;71.20;;;;;;5024009;28;20037;-86
2022/08/15 01:05:04;;;;;;;21.92;14.27;;;23.20;71.40;;;;;;5007963;28;20102;-86
2022/08/15 01:07:30;;;;;;;18.75;14.20;;;23.20;71.60;;;;;;5041338;28;20531;-87
2022/08/15 01:09:58;;;;;;;15.48;13.38;;;23.20;71.80;;;;;;5020095;28;20068;-87
2022/08/15 01:12:26;;;;;;;19.13;13.57;;;23.10;71.90;;;;;;5025809;28;20411;-88
2022/08/15 01:14:58;;;;;;;20.08;14.02;;;23.10;71.90;;;;;;5020322;28;20048;-87
2022/08/15 01:17:27;;;;;;;18.05;13.70;;;23.10;72.00;;;;;;5023505;28;20037;-86
2022/08/15 01:20:03;;;;;;;16.00;13.00;;;23.10;72.40;;;;;;5053583;28;20120;-86
2022/08/15 01:22:51;;;;;;;16.55;13.00;;;23.10;72.30;;;;;;4993207;28;20033;-85
2022/08/15 01:25:25;;;;;;;15.90;13.10;;;23.00;72.50;;;;;;5019736;28;20434;-87
2022/08/15 01:28:13;;;;;;;21.15;12.82;;;23.00;72.60;;;;;;5036885;28;20028;-85
2022/08/15 01:30:56;;;;;;;17.67;13.05;;;23.00;72.80;;;;;;5025260;28;20033;-85
2022/08/15 01:33:26;;;;;;;18.98;12.70;;;23.00;72.90;;;;;;5012490;28;20432;-86
2022/08/15 01:35:54;;;;;;;18.70;13.60;;;22.90;73.00;;;;;;5039873;28;20124;-84
2022/08/15 01:38:23;;;;;;;21.20;13.23;;;22.90;73.30;;;;;;5038584;28;20033;-84
2022/08/15 01:41:30;;;;;;;17.88;13.93;;;22.90;73.50;;;;;;5039826;28;20419;-85
2022/08/15 01:44:05;;;;;;;;;;;22.80;73.80;;;;;;5026805;28;20168;-84
2022/08/15 01:46:36;;;;;;;16.67;12.80;;;22.70;74.00;;;;;;5006381;28;20302;-85
2022/08/15 01:49:08;;;;;;;16.40;13.02;;;22.70;74.00;;;;;;5035998;28;20037;-85
2022/08/15 01:51:35;;;;;;;20.95;14.10;;;22.80;74.00;;;;;;5019801;28;20468;-83
2022/08/15 01:54:05;;;;;;;16.05;13.75;;;22.70;74.30;;;;;;5018360;28;20091;-87
2022/08/15 01:56:35;;;;;;;18.52;13.63;;;22.70;74.30;;;;;;5041776;28;20116;-84
2022/08/15 01:59:05;;;;;;;19.83;13.65;;;22.60;74.40;;;;;;5027808;28;20523;-86
2022/08/15 02:01:43;;;;;;;19.85;13.77;;;22.60;74.50;;;;;;5043485;28;20531;-87
2022/08/15 02:04:12;;;;;;;15.50;13.65;;;22.60;74.70;;;;;;5017164;28;20518;-87
2022/08/15 02:06:40;;;;;;;23.27;14.93;;;22.60;74.80;;;;;;5036155;28;20044;-87
2022/08/15 02:09:13;;;;;;;19.88;15.18;;;22.50;75.00;;;;;;5041025;28;20104;-87
2022/08/15 02:11:39;;;;;;;27.20;15.05;;;22.50;75.30;;;;;;5018601;28;20132;-86
2022/08/15 02:14:08;;;;;;;16.42;13.65;;;22.50;75.40;;;;;;5038333;28;20604;-85
2022/08/15 02:16:36;;;;;;;16.80;14.45;;;22.40;75.30;;;;;;5018870;28;20037;-86
2022/08/15 02:19:07;;;;;;;20.95;15.85;;;22.40;75.60;;;;;;5027981;28;20500;-86
2022/08/15 02:21:35;;;;;;;22.83;15.15;;;22.50;75.70;;;;;;5042944;28;20032;-85
2022/08/15 02:24:03;;;;;;;19.40;15.13;;;22.40;75.70;;;;;;5040959;28;20396;-86
2022/08/15 02:26:29;;;;;;;20.33;15.20;;;22.40;75.80;;;;;;5039277;28;20040;-85
2022/08/15 02:28:55;;;;;;;21.67;15.27;;;22.30;76.00;;;;;;5019877;28;20372;-85
2022/08/15 02:31:25;;;;;;;23.38;15.85;;;22.30;76.10;;;;;;5036157;28;20060;-85
2022/08/15 02:33:58;;;;;;;21.13;15.60;;;22.30;76.00;;;;;;5035045;28;20119;-85
2022/08/15 02:36:27;;;;;;;19.60;15.27;;;22.30;76.30;;;;;;5006991;28;20499;-86
2022/08/15 02:38:53;;;;;;;25.85;16.75;;;22.40;76.20;;;;;;5017379;28;20127;-85
2022/08/15 02:41:30;;;;;;;19.20;16.23;;;22.30;76.30;;;;;;5035865;28;20133;-85
2022/08/15 02:44:01;;;;;;;20.95;16.80;;;22.30;76.80;;;;;;5035169;28;20038;-86
2022/08/15 02:46:29;;;;;;;25.15;16.42;;;22.20;76.70;;;;;;5004834;28;20045;-85
2022/08/15 02:48:58;;;;;;;22.40;16.20;;;22.20;76.70;;;;;;5019502;28;20041;-84
2022/08/15 02:51:31;;;;;;;;;;;22.20;76.90;;;;;;5043090;28;20029;-82
2022/08/15 02:53:58;;;;;;;19.73;15.30;;;22.20;77.10;;;;;;5038680;28;19927;-83
2022/08/15 02:56:27;;;;;;;20.48;16.75;;;22.20;77.70;;;;;;5006056;28;20036;-85
2022/08/15 02:58:54;;;;;;;27.25;16.40;;;22.20;77.40;;;;;;5023084;28;20037;-84
2022/08/15 03:01:22;;;;;;;22.08;16.92;;;22.20;77.40;;;;;;5002322;28;20041;-86
2022/08/15 03:03:53;;;;;;;25.02;17.08;;;22.20;77.30;;;;;;5034496;28;20043;-84
2022/08/15 03:06:24;;;;;;;24.90;17.05;;;22.10;77.40;;;;;;5034533;28;20408;-84
2022/08/15 03:08:53;;;;;;;22.35;17.30;;;22.20;77.50;;;;;;5021384;28;20029;-84
2022/08/15 03:11:20;;;;;;;25.55;17.50;;;22.20;77.40;;;;;;5035453;28;20045;-84
2022/08/15 03:13:47;;;;;;;22.65;17.67;;;22.20;77.50;;;;;;5045316;28;20040;-85
2022/08/15 03:16:15;;;;;;;21.50;16.83;;;22.30;77.40;;;;;;5034831;28;20077;-84
2022/08/15 03:18:42;;;;;;;24.52;17.58;;;22.30;77.20;;;;;;5022745;28;20033;-84
2022/08/15 03:21:14;;;;;;;20.67;16.15;;;22.20;77.50;;;;;;5033865;28;20447;-84
2022/08/15 03:23:48;;;;;;;27.50;18.33;;;22.20;77.70;;;;;;5017678;28;20037;-84
2022/08/15 03:26:21;;;;;;;23.13;17.13;;;22.30;77.70;;;;;;5024083;28;20389;-85
2022/08/15 03:28:47;;;;;;;20.63;16.42;;;22.40;77.60;;;;;;5008238;28;20095;-86
2022/08/15 03:31:14;;;;;;;25.85;17.25;;;22.40;77.40;;;;;;5036545;28;20044;-85
2022/08/15 03:33:45;;;;;;;21.95;16.10;;;22.50;77.40;;;;;;5017652;28;20456;-88
2022/08/15 03:36:13;;;;;;;25.98;17.77;;;22.50;77.40;;;;;;5034495;28;20033;-85
2022/08/15 03:38:39;;;;;;;23.65;17.33;;;22.40;77.60;;;;;;5035477;28;20041;-83
2022/08/15 03:41:10;;;;;;;25.15;16.83;;;22.50;77.70;;;;;;5009469;28;20037;-85
2022/08/15 03:43:38;;;;;;;22.48;17.38;;;22.50;77.50;;;;;;5049857;28;20060;-85
2022/08/15 03:46:08;;;;;;;26.08;17.58;;;22.50;77.60;;;;;;5023502;28;20116;-84
2022/08/15 03:48:45;;;;;;;21.90;16.25;;;22.50;77.60;;;;;;5017905;28;20033;-81
2022/08/15 03:51:12;;;;;;;24.38;17.73;;;22.60;77.50;;;;;;5006674;28;20492;-81
2022/08/15 03:53:45;;;;;;;23.45;16.42;;;22.60;77.10;;;;;;5035207;28;20041;-80
2022/08/15 03:56:18;;;;;;;25.88;17.02;;;22.70;77.10;;;;;;5035098;28;20037;-81
2022/08/15 03:58:45;;;;;;;23.45;16.80;;;22.70;76.90;;;;;;5011740;28;20167;-81
2022/08/15 04:01:18;;;;;;;30.00;19.08;;;22.70;77.10;;;;;;5017275;28;20561;-81
2022/08/15 04:03:47;;;;;;;25.77;18.63;;;22.70;76.90;;;;;;5051365;28;20044;-81
2022/08/15 04:06:18;;;;;;;26.23;18.30;;;22.70;77.70;;;;;;5007321;28;20040;-82
2022/08/15 04:08:49;;;;;;;31.48;17.80;;;22.70;77.10;;;;;;5023917;28;20191;-82
2022/08/15 04:11:16;;;;;;;32.45;19.60;;;22.70;76.90;;;;;;5033924;28;20071;-82
2022/08/15 04:13:44;;;;;;;27.17;18.67;;;22.80;76.90;;;;;;5034509;28;20033;-82
2022/08/15 04:16:14;;;;;;;29.60;19.75;;;22.80;76.80;;;;;;5019939;28;20052;-82
2022/08/15 04:18:41;;;;;;;23.85;18.20;;;22.70;76.90;;;;;;4996082;28;20040;-81
2022/08/15 04:21:11;;;;;;;24.27;18.55;;;22.80;76.70;;;;;;5035844;28;20033;-82
2022/08/15 04:23:41;;;;;;;25.95;18.55;;;23.00;76.50;;;;;;5049874;28;20136;-82
2022/08/15 04:26:08;;;;;;;26.70;19.48;;;23.10;76.20;;;;;;5028000;28;20041;-82
2022/08/15 04:28:34;;;;;;;27.20;20.10;;;23.30;75.50;;;;;;5037067;28;20040;-82
2022/08/15 04:31:05;;;;;;;26.38;20.77;;;23.50;74.80;;;;;;5022318;28;20407;-81
2022/08/15 04:33:33;;;;;;;25.83;21.05;;;23.70;73.90;;;;;;5028531;28;20040;-81
2022/08/15 04:36:12;;;;;;;29.23;20.48;;;23.90;73.30;;;;;;5022455;28;20041;-80
2022/08/15 04:38:43;;;;;;;24.80;19.98;;;24.10;72.70;;;;;;5038073;28;20037;-81
2022/08/15 04:41:11;;;;;;;28.25;20.33;;;24.20;72.00;;;;;;5037533;28;20037;-82
2022/08/15 04:43:40;;;;;;;29.35;19.88;;;24.40;71.40;;;;;;5037131;28;20033;-82
2022/08/15 04:46:10;;;;;;;24.65;18.75;;;24.60;70.80;;;;;;5029890;28;20034;-82
2022/08/15 04:48:39;;;;;;;21.00;18.13;;;24.80;69.90;;;;;;5020865;28;20029;-82
2022/08/15 04:51:06;;;;;;;23.33;18.85;;;24.80;69.40;;;;;;5026381;28;20511;-83
2022/08/15 04:53:35;;;;;;;23.38;17.45;;;25.00;68.60;;;;;;5042213;28;20033;-82
2022/08/15 04:56:06;;;;;;;19.02;15.25;;;25.20;68.10;;;;;;5020077;28;20045;-82
2022/08/15 04:58:34;;;;;;;18.70;13.80;;;25.40;67.90;;;;;;5029323;28;20559;-83
2022/08/15 05:01:11;;;;;;;18.00;15.65;;;25.60;65.80;;;;;;5009097;28;20033;-83
2022/08/15 05:03:43;;;;;;;17.90;14.68;;;25.70;65.50;;;;;;5026198;28;20068;-82
2022/08/15 05:06:10;;;;;;;18.48;14.93;;;26.00;65.60;;;;;;5038132;28;20500;-83
2022/08/15 05:08:38;;;;;;;15.57;13.65;;;26.30;65.00;;;;;;5040003;28;20030;-80
2022/08/15 05:11:19;;;;;;;16.38;13.68;;;26.50;64.50;;;;;;5052341;28;20081;-81
2022/08/15 05:13:54;;;;;;;18.52;13.57;;;26.80;64.20;;;;;;5040627;28;20029;-81
2022/08/15 05:16:27;;;;;;;17.25;13.07;;;27.00;62.90;;;;;;5021561;28;20040;-82
2022/08/15 05:18:53;;;;;;;15.48;12.35;;;27.20;62.10;;;;;;5032714;28;20123;-83
2022/08/15 05:21:20;;;;;;;15.88;11.77;;;27.40;61.80;;;;;;5037264;28;20839;-82
2022/08/15 05:23:46;;;;;;;17.50;13.13;;;27.50;61.90;;;;;;5020691;28;20131;-82
2022/08/15 05:26:28;;;;;;;14.52;11.82;;;27.60;59.90;;;;;;5041162;28;20033;-82
2022/08/15 05:28:54;;;;;;;17.60;12.52;;;27.80;58.80;;;;;;5016469;28;20124;-82
2022/08/15 05:31:20;;;;;;;15.23;11.52;;;27.80;58.80;;;;;;5036709;28;20234;-82
2022/08/15 05:33:50;;;;;;;14.98;11.90;;;27.80;59.20;;;;;;5022805;28;20036;-82
2022/08/15 05:36:18;;;;;;;16.65;11.52;;;28.10;60.80;;;;;;5035687;28;20033;-82
2022/08/15 05:38:55;;;;;;;18.33;11.45;;;28.20;59.40;;;;;;5035984;28;20036;-82
2022/08/15 05:41:53;;;;;;;17.17;11.90;;;28.40;59.30;;;;;;5010465;28;20037;-84
2022/08/15 05:44:45;;;;;;;19.98;11.57;;;28.50;58.20;;;;;;5036560;28;20043;-84
2022/08/15 05:47:30;;;;;;;16.83;11.77;;;28.60;57.70;;;;;;5028731;28;20503;-82
2022/08/15 05:50:20;;;;;;;13.10;11.07;;;28.80;57.70;;;;;;5020352;28;20812;-81
2022/08/15 05:53:08;;;;;;;15.95;10.55;;;28.90;57.20;;;;;;5024041;28;20318;-82
2022/08/15 05:55:34;;;;;;;13.98;10.35;;;29.10;57.70;;;;;;5052654;28;20036;-83
2022/08/15 05:58:18;;;;;;;11.80;9.73;;;29.20;57.00;;;;;;5003188;28;20037;-83
2022/08/15 06:01:15;;;;;;;9.52;8.10;;;29.20;56.80;;;;;;5025185;28;20028;-83
2022/08/15 06:03:49;;;;;;;12.93;9.50;;;29.00;54.80;;;;;;5001393;28;20042;-82
2022/08/15 06:06:20;;;;;;;10.80;8.27;;;29.00;57.50;;;;;;5002414;28;20022;-83
2022/08/15 06:08:51;;;;;;;9.80;7.28;;;29.10;56.70;;;;;;5002380;28;20030;-82
2022/08/15 06:11:27;;;;;;;9.68;8.05;;;29.10;55.40;;;;;;5000151;28;20038;-83
2022/08/15 06:13:55;;;;;;;;;;;29.20;56.60;;;;;;4970132;28;20089;-81
2022/08/15 06:16:40;;;;;;;11.43;7.30;;;29.30;55.50;;;;;;4985644;28;19918;-82
2022/08/15 06:19:26;;;;;;;12.40;7.93;;;29.40;54.90;;;;;;5004148;28;20045;-82
2022/08/15 06:22:20;;;;;;;7.77;6.63;;;29.40;56.70;;;;;;5001431;28;20107;-82
2022/08/15 06:25:05;;;;;;;6.78;4.55;;;29.50;54.70;;;;;;4996539;28;20130;-81
2022/08/15 06:27:44;;;;;;;6.00;4.90;;;29.50;52.30;;;;;;5001178;28;20120;-82
2022/08/15 06:30:17;;;;;;;4.82;4.30;;;29.40;52.20;;;;;;5001800;28;20045;-82
2022/08/15 06:33:20;;;;;;;5.82;5.07;;;29.40;51.70;;;;;;4998301;28;20117;-83
2022/08/15 06:35:54;;;;;;;6.00;4.63;;;29.50;54.80;;;;;;4985664;28;20054;-83
2022/08/15 06:38:38;;;;;;;8.23;4.95;;;29.60;52.50;;;;;;4987249;28;20421;-83
2022/08/15 06:41:38;;;;;;;12.68;5.63;;;29.70;54.10;;;;;;5022146;28;20029;-84
2022/08/15 06:44:19;;;;;;;4.70;4.30;;;29.80;54.60;;;;;;4953682;28;20779;-83
2022/08/15 06:47:03;;;;;;;6.28;4.05;;;30.00;51.30;;;;;;4951004;28;20030;-83
2022/08/15 06:49:39;;;;;;;5.07;3.60;;;30.00;51.00;;;;;;4979672;28;20061;-83
2022/08/15 06:52:06;;;;;;;4.95;3.58;;;30.10;50.70;;;;;;4975529;28;20137;-82
2022/08/15 06:54:33;;;;;;;5.22;3.78;;;30.10;50.80;;;;;;4969848;28;20045;-84
2022/08/15 06:57:08;;;;;;;6.68;4.00;;;30.20;51.20;;;;;;4961570;28;20414;-87
2022/08/15 06:59:40;;;;;;;;;;;30.10;50.70;;;;;;4985749;28;20604;-85
2022/08/15 07:02:36;;;;;;;9.23;4.10;;;30.00;51.50;;;;;;4988622;28;19917;-86
2022/08/15 07:05:07;;;;;;;7.25;3.70;;;29.90;50.80;;;;;;4952216;28;20069;-86
2022/08/15 07:07:41;;;;;;;9.15;3.97;;;29.90;50.70;;;;;;4947835;28;20212;-85
2022/08/15 07:10:24;;;;;;;8.38;3.88;;;29.90;50.70;;;;;;4985125;28;20520;-85
2022/08/15 07:13:18;;;;;;;6.30;3.88;;;29.90;50.30;;;;;;4970738;28;20057;-89
2022/08/15 07:15:56;;;;;;;9.40;3.97;;;29.70;49.70;;;;;;4962923;28;20064;-90
2022/08/15 07:18:34;;;;;;;5.90;3.72;;;29.70;50.50;;;;;;4961841;28;20045;-87
2022/08/15 07:21:08;;;;;;;6.63;3.97;;;29.70;50.50;;;;;;5005833;28;20029;-88
2022/08/15 07:23:35;;;;;;;4.38;3.97;;;29.80;50.80;;;;;;5051766;28;20041;-88
2022/08/15 07:26:10;;;;;;;5.32;3.65;;;29.80;50.80;;;;;;5045073;28;20044;-90
2022/08/15 07:28:43;;;;;;;4.75;3.33;;;29.80;49.60;;;;;;5058188;28;20061;-91
2022/08/15 07:31:18;;;;;;;5.22;3.22;;;29.80;49.20;;;;;;5035888;28;20030;-89
2022/08/15 07:33:50;;;;;;;7.07;3.72;;;29.80;48.60;;;;;;5045994;28;20096;-81
2022/08/15 07:36:31;;;;;;;3.13;2.92;;;29.70;48.90;;;;;;5046133;28;20075;-85
2022/08/15 07:39:00;;;;;;;3.97;2.97;;;29.60;49.90;;;;;;5025170;28;20037;-85
2022/08/15 07:41:39;;;;;;;4.20;3.30;;;29.50;50.40;;;;;;5045995;28;20048;-84
2022/08/15 07:44:18;;;;;;;5.00;3.42;;;29.40;51.10;;;;;;5049762;28;20091;-88
2022/08/15 07:47:12;;;;;;;6.22;3.30;;;29.40;51.20;;;;;;5041328;28;20033;-86
2022/08/15 07:49:38;;;;;;;5.55;3.60;;;29.50;50.20;;;;;;5024050;28;20432;-86
2022/08/15 07:52:16;;;;;;;3.97;3.30;;;29.40;50.30;;;;;;5041860;28;20041;-88
2022/08/15 07:54:44;;;;;;;3.00;2.70;;;29.30;51.10;;;;;;5028305;28;20167;-87
2022/08/15 07:57:33;;;;;;;3.53;2.28;;;29.30;48.40;;;;;;5040978;28;20116;-87
2022/08/15 08:00:09;;;;;;;3.08;2.30;;;29.30;46.80;;;;;;5041940;28;20040;-88
2022/08/15 08:03:09;;;;;;;4.20;2.00;;;29.10;46.70;;;;;;5049755;28;20041;-87
2022/08/15 08:06:01;;;;;;;2.25;2.00;;;29.10;45.30;;;;;;5025522;28;20041;-89
2022/08/15 08:09:12;;;;;;;3.45;1.92;;;29.00;45.40;;;;;;5039599;28;20083;-90
2022/08/15 08:11:54;;;;;;;2.70;2.08;;;29.00;45.20;;;;;;5038335;28;20042;-84
2022/08/15 08:14:39;;;;;;;5.05;2.00;;;29.00;45.00;;;;;;5034477;28;20064;-86
2022/08/15 08:17:12;;;;;;;5.10;2.22;;;28.90;45.80;;;;;;5033304;28;20459;-83
2022/08/15 08:20:01;;;;;;;2.63;1.88;;;28.90;48.00;;;;;;5032245;28;20524;-81
2022/08/15 08:22:55;;;;;;;2.53;2.20;;;28.80;46.00;;;;;;5024592;28;20045;-86
2022/08/15 08:25:29;;;;;;;3.85;2.00;;;28.70;45.00;;;;;;5050787;28;20041;-86
2022/08/15 08:28:38;;;;;;;3.58;1.67;;;28.60;46.00;;;;;;5046093;28;20442;-83
2022/08/15 08:31:32;;;;;;;2.92;1.67;;;28.50;45.70;;;;;;5046059;28;20041;-85
2022/08/15 08:34:10;;;;;;;3.63;1.77;;;28.50;44.90;;;;;;5041718;28;20056;-83
2022/08/15 08:36:58;;;;;;;4.65;1.77;;;28.40;45.10;;;;;;5051186;28;20075;-85
2022/08/15 08:39:30;;;;;;;2.28;1.52;;;28.30;44.80;;;;;;5033650;28;20055;-88
2022/08/15 08:42:23;;;;;;;3.17;1.58;;;28.30;45.60;;;;;;5023281;28;20037;-87
2022/08/15 08:44:53;;;;;;;3.20;1.75;;;28.30;46.60;;;;;;5039184;28;20041;-88
2022/08/15 08:47:41;;;;;;;2.13;1.92;;;28.20;46.70;;;;;;5048024;28;20037;-86
2022/08/15 08:50:31;;;;;;;4.53;2.00;;;28.20;46.80;;;;;;5045960;28;20033;-86
2022/08/15 08:53:33;;;;;;;2.42;1.92;;;28.20;47.40;;;;;;5055791;28;20029;-85
2022/08/15 08:56:14;;;;;;;5.57;2.03;;;28.30;47.30;;;;;;5053345;28;20033;-86
2022/08/15 08:58:50;;;;;;;1.98;1.80;;;28.30;49.60;;;;;;5041140;28;20043;-86
2022/08/15 09:01:21;;;;;;;3.50;2.17;;;28.30;54.70;;;;;;5035415;28;20071;-86
2022/08/15 09:03:53;;;;;;;2.97;1.90;;;28.20;49.50;;;;;;5038558;28;20079;-85
2022/08/15 09:06:24;;;;;;;3.05;2.00;;;28.20;50.30;;;;;;5033957;28;20057;-84
2022/08/15 09:08:57;;;;;;;4.50;2.10;;;28.20;54.30;;;;;;5019438;28;20535;-85
2022/08/15 09:11:53;;;;;;;3.67;2.55;;;28.20;57.00;;;;;;5034646;28;20135;-82
2022/08/15 09:14:47;;;;;;;3.08;2.05;;;28.20;51.10;;;;;;5018148;28;20503;-82
2022/08/15 09:17:15;;;;;;;3.30;2.00;;;28.20;49.90;;;;;;5033272;28;20559;-83
2022/08/15 09:19:41;;;;;;;7.93;2.00;;;28.20;55.40;;;;;;5036468;28;20091;-83
2022/08/15 09:22:08;;;;;;;3.92;2.03;;;28.20;56.40;;;;;;5002179;28;20045;-81
2022/08/15 09:24:34;;;;;;;3.25;2.08;;;28.20;50.10;;;;;;5037548;28;20069;-82
2022/08/15 09:27:20;;;;;;;5.82;2.08;;;28.20;48.50;;;;;;5037261;28;20029;-83
2022/08/15 09:30:03;;;;;;;6.07;2.17;;;28.20;48.80;;;;;;5036574;28;20127;-85
2022/08/15 09:32:29;;;;;;;3.20;2.10;;;28.10;47.50;;;;;;5037513;28;20052;-81
2022/08/15 09:35:24;;;;;;;4.85;2.28;;;28.00;49.70;;;;;;5038125;28;20488;-81
2022/08/15 09:38:28;;;;;;;3.30;2.20;;;28.00;47.90;;;;;;5006914;28;20037;-81
2022/08/15 09:41:13;;;;;;;4.70;2.45;;;28.00;47.50;;;;;;5037078;28;20039;-81
2022/08/15 09:44:20;;;;;;;3.60;2.20;;;28.00;48.20;;;;;;5037175;28;20037;-84
2022/08/15 09:46:45;;;;;;;2.95;2.33;;;28.00;47.70;;;;;;5011396;28;20034;-83
2022/08/15 09:49:20;;;;;;;3.88;2.33;;;28.00;48.30;;;;;;4998772;28;20029;-84
2022/08/15 09:52:02;;;;;;;3.50;2.55;;;28.00;49.10;;;;;;5012505;28;20044;-83
2022/08/15 09:54:31;;;;;;;3.08;2.30;;;28.00;48.70;;;;;;4997637;28;20427;-84
2022/08/15 09:57:18;;;;;;;3.63;2.03;;;28.00;54.90;;;;;;4998941;28;20037;-86
2022/08/15 09:59:48;;;;;;;3.90;2.97;;;28.00;52.60;;;;;;5014842;28;20034;-87
2022/08/15 10:02:17;;;;;;;4.88;3.08;;;28.10;50.50;;;;;;5013079;28;20033;-85
2022/08/15 10:04:49;;;;;;;4.05;3.08;;;28.10;49.80;;;;;;4996887;28;20033;-84
2022/08/15 10:07:15;;;;;;;7.45;3.38;;;28.10;49.90;;;;;;4994997;28;20034;-85
2022/08/15 10:10:01;;;;;;;4.68;3.40;;;28.10;51.10;;;;;;4997345;28;20076;-83
2022/08/15 10:12:28;;;;;;;3.83;2.88;;;28.10;50.20;;;;;;4997155;28;20133;-83
2022/08/15 10:15:01;;;;;;;5.38;3.30;;;28.10;56.40;;;;;;4997445;28;20033;-85
2022/08/15 10:17:34;;;;;;;5.45;3.33;;;28.10;56.00;;;;;;5024325;28;20041;-84
2022/08/15 10:20:15;;;;;;;4.03;3.13;;;28.10;53.70;;;;;;5036906;28;20029;-83
2022/08/15 10:23:00;;;;;;;5.55;3.40;;;28.10;56.90;;;;;;5051631;28;20083;-82
2022/08/15 10:25:35;;;;;;;7.40;3.40;;;28.10;54.40;;;;;;5002775;28;20048;-85
2022/08/15 10:28:07;;;;;;;5.28;3.60;;;28.10;57.20;;;;;;5037151;28;20768;-83
2022/08/15 10:30:41;;;;;;;5.10;3.92;;;28.00;51.60;;;;;;5051386;28;20083;-84
2022/08/15 10:33:32;;;;;;;4.13;3.55;;;28.00;49.40;;;;;;5019602;28;20036;-85
2022/08/15 10:36:13;;;;;;;4.07;3.67;;;28.00;49.90;;;;;;5037413;28;20040;-83
2022/08/15 10:38:52;;;;;;;6.78;3.67;;;28.00;53.50;;;;;;5022625;28;20442;-84
2022/08/15 10:41:34;;;;;;;5.75;3.67;;;28.00;53.00;;;;;;5039032;28;20036;-85
2022/08/15 10:44:10;;;;;;;6.22;3.67;;;28.00;49.80;;;;;;5021858;28;20041;-84
2022/08/15 10:47:02;;;;;;;5.28;4.18;;;28.00;49.50;;;;;;5036956;28;20036;-82
2022/08/15 10:49:38;;;;;;;4.10;3.70;;;28.00;50.10;;;;;;5034927;28;20121;-85
2022/08/15 10:52:22;;;;;;;5.25;3.97;;;28.00;52.90;;;;;;5040542;28;20033;-83
2022/08/15 10:55:13;;;;;;;7.78;4.32;;;28.00;50.70;;;;;;5035063;28;20068;-83
2022/08/15 10:58:00;;;;;;;4.45;3.95;;;28.00;54.60;;;;;;5035705;28;20512;-83
2022/08/15 11:00:57;;;;;;;5.55;4.35;;;28.00;56.10;;;;;;5036629;28;20041;-83
2022/08/15 11:03:32;;;;;;;6.05;4.97;;;28.00;55.70;;;;;;5035321;28;20071;-81
2022/08/15 11:06:03;;;;;;;6.38;5.10;;;28.00;54.10;;;;;;5034650;28;20500;-81
2022/08/15 11:08:29;;;;;;;5.25;4.57;;;28.00;55.30;;;;;;5037930;28;20053;-82
2022/08/15 11:11:10;;;;;;;5.28;4.60;;;28.00;56.30;;;;;;5020215;28;20416;-83
2022/08/15 11:13:37;;;;;;;5.07;4.55;;;28.00;55.50;;;;;;5022949;28;20044;-83
2022/08/15 11:16:16;;;;;;;9.07;5.60;;;28.00;56.00;;;;;;5035369;28;20091;-83
2022/08/15 11:18:55;;;;;;;7.28;6.40;;;28.10;53.90;;;;;;5034324;28;20033;-83
2022/08/15 11:21:29;;;;;;;9.10;7.30;;;28.10;50.50;;;;;;5036691;28;20044;-82
2022/08/15 11:24:02;;;;;;;10.30;8.45;;;28.10;53.00;;;;;;5038717;28;20718;-82
2022/08/15 11:26:33;;;;;;;7.63;6.80;;;28.00;51.80;;;;;;5036530;28;20043;-82
2022/08/15 11:29:19;;;;;;;8.93;7.90;;;28.00;51.90;;;;;;5036197;28;20059;-81
2022/08/15 11:31:50;;;;;;;;;;;28.00;51.60;;;;;;5011552;28;20435;-82
2022/08/15 11:34:38;;;;;;;8.43;7.20;;;28.00;55.00;;;;;;5035492;28;20300;-83
2022/08/15 11:37:17;;;;;;;9.25;7.63;;;28.00;54.90;;;;;;5034265;28;20554;-83
2022/08/15 11:39:53;;;;;;;8.30;7.35;;;28.00;55.10;;;;;;5035745;28;20514;-82
2022/08/15 11:42:21;;;;;;;11.68;8.82;;;28.00;53.40;;;;;;5036160;28;20052;-82
2022/08/15 11:45:04;;;;;;;9.27;7.85;;;28.00;50.50;;;;;;5034570;28;20094;-82
2022/08/15 11:47:33;;;;;;;11.05;8.32;;;28.00;55.50;;;;;;5017357;28;20040;-82
2022/08/15 11:50:05;;;;;;;10.18;7.80;;;28.00;55.60;;;;;;5017358;28;20037;-82
2022/08/15 11:52:45;;;;;;;10.98;8.57;;;28.00;55.50;;;;;;5020086;28;20037;-81
2022/08/15 11:55:26;;;;;;;9.32;8.18;;;28.00;53.40;;;;;;5020429;28;20030;-83
2022/08/15 11:57:58;;;;;;;9.15;8.25;;;28.00;53.80;;;;;;5035588;28;20040;-81
2022/08/15 12:00:41;;;;;;;8.50;7.65;;;28.00;55.20;;;;;;5037127;28;20558;-82
2022/08/15 12:03:27;;;;;;;12.68;9.40;;;28.00;56.10;;;;;;5043025;28;20519;-83
2022/08/15 12:06:19;;;;;;;13.68;11.13;;;28.00;52.30;;;;;;5049786;28;20044;-82
2022/08/15 12:08:47;;;;;;;13.75;11.43;;;28.10;51.10;;;;;;5017252;28;20041;-82
2022/08/15 12:11:16;;;;;;;11.10;9.68;;;28.20;50.60;;;;;;5032132;28;20533;-81
2022/08/15 12:13:59;;;;;;;12.05;9.40;;;28.20;51.90;;;;;;5045293;28;20044;-82
2022/08/15 12:16:37;;;;;;;17.27;10.13;;;28.20;52.10;;;;;;5033153;28;20056;-81
2022/08/15 12:19:35;;;;;;;12.52;9.10;;;28.20;52.00;;;;;;5029045;28;20034;-82
2022/08/15 12:22:06;;;;;;;10.48;9.25;;;28.20;52.80;;;;;;5034231;28;20072;-82
2022/08/15 12:24:35;;;;;;;11.27;9.27;;;28.20;52.20;;;;;;5032154;28;20511;-82
2022/08/15 12:27:01;;;;;;;10.25;8.90;;;28.20;52.60;;;;;;5043876;28;20041;-83
2022/08/15 12:29:33;;;;;;;11.80;9.25;;;28.20;52.70;;;;;;5017625;28;20034;-83
2022/08/15 12:32:02;;;;;;;11.45;9.40;;;28.20;53.40;;;;;;5047372;28;20095;-84
2022/08/15 12:34:36;;;;;;;10.68;8.93;;;28.20;53.60;;;;;;5050188;28;20033;-83
2022/08/15 12:37:08;;;;;;;13.05;8.65;;;28.10;54.30;;;;;;5034064;28;20092;-82
2022/08/15 12:39:43;;;;;;;9.85;8.20;;;28.20;55.40;;;;;;5032314;28;20029;-82
2022/08/15 12:42:37;;;;;;;10.40;8.70;;;28.10;55.60;;;;;;5047060;28;20041;-85
2022/08/15 12:45:11;;;;;;;10.27;8.57;;;28.10;56.20;;;;;;5026976;28;20049;-85
2022/08/15 12:47:37;;;;;;;9.52;7.93;;;28.10;55.40;;;;;;5038859;28;20033;-85
2022/08/15 12:50:07;;;;;;;7.72;6.75;;;28.10;51.70;;;;;;5051549;28;20522;-84
2022/08/15 12:52:36;;;;;;;11.07;7.32;;;28.10;50.00;;;;;;5046873;28;20036;-83
2022/08/15 12:55:06;;;;;;;10.45;7.85;;;28.20;51.30;;;;;;5033868;28;20041;-85
2022/08/15 12:57:32;;;;;;;11.40;8.07;;;28.20;50.80;;;;;;5041805;28;20059;-84
2022/08/15 12:59:59;;;;;;;12.38;7.90;;;28.20;50.30;;;;;;5052787;28;20037;-84
2022/08/15 13:02:25;;;;;;;10.45;7.78;;;28.20;51.50;;;;;;5049393;28;20559;-85
2022/08/15 13:04:55;;;;;;;13.00;8.07;;;28.20;53.80;;;;;;5032401;28;20045;-83
2022/08/15 13:07:23;;;;;;;9.73;7.53;;;28.20;56.10;;;;;;5039673;28;20051;-84
2022/08/15 13:09:49;;;;;;;9.95;7.28;;;28.20;53.50;;;;;;5052544;28;20061;-85
2022/08/15 13:12:16;;;;;;;10.32;7.38;;;28.20;51.10;;;;;;5051222;28;20044;-83
2022/08/15 13:14:43;;;;;;;8.23;7.20;;;28.20;51.20;;;;;;5028934;28;20080;-82
2022/08/15 13:17:12;;;;;;;8.63;7.30;;;28.20;51.70;;;;;;5030502;28;20459;-84